Time;durP1;ratioP1;P1;durP2;ratioP2;P2;SDS_P1;SDS_P2;PMS_P1;PMS_P2;Temp;Humidity;BMP_temperature;BMP_pressure;BME280_temperature;BME280_humidity;BME280_pressure;Samples;Min_cycle;Max_cycle;Signal;HPM_P1;HPM_P2
2022/01/07 00:00:13;;;;;;;12.28;9.23;;;;;;;9.50;100.00;99573.87;1661876;84;21146;-66
2022/01/07 00:02:40;;;;;;;14.30;10.40;;;;;;;9.75;100.00;99578.10;1660547;84;21020;-66
2022/01/07 00:05:11;;;;;;;13.05;9.33;;;;;;;9.87;100.00;99572.64;1687199;82;21138;-66
2022/01/07 00:07:40;;;;;;;11.45;8.25;;;;;;;9.78;100.00;99551.70;1687357;82;20922;-66
2022/01/07 00:10:13;;;;;;;12.53;9.20;;;;;;;10.10;100.00;99530.64;1669716;83;21056;-66
2022/01/07 00:12:39;;;;;;;10.23;8.05;;;;;;;10.05;100.00;99547.36;1690733;83;21067;-66
2022/01/07 00:15:07;;;;;;;10.05;7.83;;;;;;;10.00;100.00;99566.69;1707788;82;21015;-65
2022/01/07 00:17:33;;;;;;;11.48;8.08;;;;;;;10.01;100.00;99573.49;1707726;82;20996;-65
2022/01/07 00:20:00;;;;;;;10.08;6.87;;;;;;;10.16;100.00;99575.44;1706046;84;21023;-65
2022/01/07 00:22:26;;;;;;;9.35;6.83;;;;;;;10.27;100.00;99578.00;1706871;82;21571;-64
2022/01/07 00:24:53;;;;;;;8.48;5.37;;;;;;;10.43;100.00;99584.13;1705821;83;21133;-65
2022/01/07 00:27:19;;;;;;;7.53;5.40;;;;;;;10.39;100.00;99597.25;1713244;83;20951;-64
2022/01/07 00:29:46;;;;;;;8.83;5.30;;;;;;;10.23;100.00;99610.63;1723965;81;20939;-63
2022/01/07 00:32:12;;;;;;;7.97;5.62;;;;;;;10.25;100.00;99612.55;1705401;83;20994;-64
2022/01/07 00:34:39;;;;;;;6.37;4.28;;;;;;;10.29;100.00;99609.05;1706168;83;21092;-63
2022/01/07 00:37:09;;;;;;;6.30;4.53;;;;;;;10.06;100.00;99608.05;1706681;82;21814;-64
2022/01/07 00:39:36;;;;;;;6.78;4.95;;;;;;;10.02;100.00;99598.52;1707581;82;21006;-63
2022/01/07 00:42:03;;;;;;;7.05;5.10;;;;;;;10.39;100.00;99602.47;1707504;82;21011;-65
2022/01/07 00:44:29;;;;;;;6.15;4.40;;;;;;;10.30;100.00;99602.33;1705667;83;20975;-65
2022/01/07 00:46:56;;;;;;;8.15;4.92;;;;;;;10.17;100.00;99603.08;1706100;84;21016;-67
2022/01/07 00:49:23;;;;;;;5.92;4.10;;;;;;;10.01;100.00;99611.75;1707128;82;21166;-66
2022/01/07 00:51:49;;;;;;;8.10;4.87;;;;;;;10.32;100.00;99618.58;1705762;84;21122;-66
2022/01/07 00:54:18;;;;;;;5.75;3.65;;;;;;;10.05;100.00;99626.78;1713062;83;21011;-65
2022/01/07 00:56:45;;;;;;;6.00;3.87;;;;;;;10.36;100.00;99621.09;1685539;84;21024;-66
2022/01/07 00:59:12;;;;;;;7.50;4.30;;;;;;;10.36;100.00;99593.73;1690182;83;21011;-65
2022/01/07 01:01:41;;;;;;;7.37;4.75;;;;;;;10.31;100.00;99598.75;1706103;83;21587;-66
2022/01/07 01:04:08;;;;;;;5.65;3.45;;;;;;;10.34;100.00;99629.63;1699208;83;21105;-64
2022/01/07 01:06:38;;;;;;;5.25;3.37;;;;;;;10.12;100.00;99621.61;1693184;83;20999;-63
2022/01/07 01:09:06;;;;;;;5.00;3.02;;;;;;;10.23;100.00;99613.23;1694134;83;21142;-67
2022/01/07 01:11:32;;;;;;;5.05;3.02;;;;;;;9.88;100.00;99619.79;1692758;83;21162;-65
2022/01/07 01:13:59;;;;;;;4.15;2.70;;;;;;;9.87;100.00;99622.09;1696421;82;21156;-63
2022/01/07 01:16:26;;;;;;;3.85;2.42;;;;;;;9.91;100.00;99647.25;1694033;82;20924;-64
2022/01/07 01:18:52;;;;;;;4.20;2.83;;;;;;;10.13;100.00;99647.94;1695049;82;20905;-66
2022/01/07 01:21:19;;;;;;;5.75;3.27;;;;;;;10.07;100.00;99639.59;1693859;82;21015;-64
2022/01/07 01:23:45;;;;;;;5.12;3.77;;;;;;;9.94;100.00;99642.96;1692314;83;22140;-67
2022/01/07 01:26:13;;;;;;;5.10;3.00;;;;;;;9.99;100.00;99650.48;1695364;82;21168;-64
2022/01/07 01:28:39;;;;;;;4.47;2.80;;;;;;;10.31;100.00;99652.15;1692958;83;20943;-64
2022/01/07 01:31:07;;;;;;;5.53;2.83;;;;;;;10.38;100.00;99666.00;1694435;83;21011;-65
2022/01/07 01:33:34;;;;;;;4.47;2.75;;;;;;;10.29;100.00;99666.36;1692678;83;21024;-67
2022/01/07 01:36:00;;;;;;;5.03;3.10;;;;;;;10.30;100.00;99659.64;1693834;83;21045;-64
2022/01/07 01:38:30;;;;;;;4.58;2.77;;;;;;;10.54;100.00;99651.01;1693155;83;22215;-64
2022/01/07 01:40:57;;;;;;;5.05;2.98;;;;;;;10.70;100.00;99642.81;1696798;82;21014;-64
2022/01/07 01:43:24;;;;;;;4.97;2.92;;;;;;;10.88;98.81;99637.81;1692182;83;21421;-64
2022/01/07 01:45:51;;;;;;;4.78;2.92;;;;;;;10.68;99.29;99633.06;1695492;82;21042;-67
2022/01/07 01:48:19;;;;;;;5.25;3.33;;;;;;;10.72;99.16;99634.30;1673699;82;21598;-65
2022/01/07 01:50:45;;;;;;;4.85;2.90;;;;;;;10.87;95.89;99645.34;1693921;82;21095;-65
2022/01/07 01:53:13;;;;;;;6.90;2.80;;;;;;;10.48;95.62;99649.47;1694677;82;21061;-64
2022/01/07 01:55:39;;;;;;;6.25;3.30;;;;;;;9.86;100.00;99660.84;1694012;82;21701;-63
2022/01/07 01:58:06;;;;;;;4.60;3.12;;;;;;;10.02;100.00;99666.73;1694991;82;21007;-66
2022/01/07 02:00:33;;;;;;;5.33;3.27;;;;;;;9.99;100.00;99666.10;1694014;82;21069;-66
2022/01/07 02:02:59;;;;;;;5.60;3.40;;;;;;;9.96;100.00;99685.21;1695304;82;21011;-68
2022/01/07 02:05:30;;;;;;;5.40;3.55;;;;;;;9.86;100.00;99684.28;1693546;82;20939;-66
2022/01/07 02:07:55;;;;;;;5.45;3.42;;;;;;;9.93;100.00;99689.02;1695281;82;21080;-70
2022/01/07 02:10:21;;;;;;;6.05;3.80;;;;;;;9.67;100.00;99692.77;1683072;83;21603;-63
2022/01/07 02:12:51;;;;;;;5.45;3.90;;;;;;;9.48;100.00;99695.05;1694231;82;21445;-64
2022/01/07 02:15:18;;;;;;;5.37;3.33;;;;;;;9.44;100.00;99695.13;1693008;83;21508;-64
2022/01/07 02:17:48;;;;;;;5.65;3.90;;;;;;;9.52;100.00;99707.69;1693563;82;21033;-64
2022/01/07 02:20:18;;;;;;;5.62;4.08;;;;;;;9.74;100.00;99704.83;1691858;83;21131;-63
2022/01/07 02:22:44;;;;;;;5.62;3.95;;;;;;;9.97;100.00;99702.46;1694128;82;21019;-63
2022/01/07 02:25:13;;;;;;;6.55;3.65;;;;;;;9.94;100.00;99702.84;1697516;82;20996;-65
2022/01/07 02:27:41;;;;;;;7.12;4.53;;;;;;;9.87;100.00;99700.69;1694040;82;21106;-63
2022/01/07 02:30:11;;;;;;;7.10;4.87;;;;;;;9.91;100.00;99695.41;1694071;83;21045;-63
2022/01/07 02:32:41;;;;;;;7.87;4.83;;;;;;;9.91;100.00;99689.70;1693224;83;21006;-64
2022/01/07 02:35:11;;;;;;;8.23;5.28;;;;;;;9.98;100.00;99676.72;1693938;83;20999;-64
2022/01/07 02:37:38;;;;;;;6.70;4.47;;;;;;;9.94;100.00;99688.52;1692953;83;21002;-67
2022/01/07 02:40:07;;;;;;;7.45;4.80;;;;;;;9.92;100.00;99687.39;1695266;82;23274;-64
2022/01/07 02:42:34;;;;;;;8.55;5.55;;;;;;;9.97;100.00;99688.14;1693142;83;21024;-64
2022/01/07 02:45:08;;;;;;;7.75;5.00;;;;;;;10.95;97.72;99680.34;1695032;82;20986;-64
2022/01/07 02:47:49;;;;;;;7.37;4.87;;;;;;;11.51;84.54;99668.67;1693171;83;22048;-66
2022/01/07 02:50:07;;;;;;;7.65;4.50;;;;;;;10.46;92.79;99676.24;1694545;82;20923;-64
2022/01/07 02:52:33;;;;;;;7.10;4.72;;;;;;;10.30;96.71;99676.57;1693154;83;21841;-64
2022/01/07 02:55:03;;;;;;;6.75;4.33;;;;;;;10.66;92.79;99680.70;1694938;82;20971;-66
2022/01/07 02:57:33;;;;;;;6.10;3.65;;;;;;;10.64;91.31;99698.32;1693981;82;21057;-68
2022/01/07 03:00:00;;;;;;;6.22;3.95;;;;;;;10.70;89.24;99696.24;1694562;83;22119;-63
2022/01/07 03:02:27;;;;;;;8.03;4.40;;;;;;;10.80;86.20;99697.98;1693135;83;21094;-62
2022/01/07 03:04:54;;;;;;;6.45;4.28;;;;;;;10.87;83.95;99687.06;1699087;82;21081;-65
2022/01/07 03:07:20;;;;;;;5.90;3.75;;;;;;;10.78;84.30;99698.66;1706759;82;20991;-66
2022/01/07 03:09:46;;;;;;;6.03;3.80;;;;;;;10.88;81.12;99691.77;1706052;82;20937;-67
2022/01/07 03:12:13;;;;;;;6.47;4.03;;;;;;;11.11;80.62;99687.48;1706383;82;22129;-65
2022/01/07 03:14:39;;;;;;;7.17;4.40;;;;;;;9.77;94.28;99693.72;1705408;82;21071;-65
2022/01/07 03:17:07;;;;;;;7.55;5.05;;;;;;;9.79;97.01;99690.44;1704635;82;21472;-65
2022/01/07 03:19:34;;;;;;;7.37;4.22;;;;;;;9.98;94.34;99700.95;1703539;84;21059;-65
2022/01/07 03:22:00;;;;;;;8.03;5.62;;;;;;;10.43;91.97;99705.29;1702901;84;21044;-68
2022/01/07 03:24:28;;;;;;;7.67;4.90;;;;;;;10.46;90.91;99706.71;1705102;82;21056;-66
2022/01/07 03:26:55;;;;;;;7.62;5.20;;;;;;;10.14;90.54;99710.74;1706426;82;20900;-67
2022/01/07 03:29:22;;;;;;;7.50;5.00;;;;;;;9.94;93.37;99710.15;1693110;84;21052;-65
2022/01/07 03:31:48;;;;;;;9.13;5.47;;;;;;;9.59;97.14;99709.34;1703735;84;21062;-66
2022/01/07 03:34:17;;;;;;;7.95;5.30;;;;;;;9.77;97.14;99713.23;1703388;82;20931;-65
2022/01/07 03:36:43;;;;;;;9.23;5.20;;;;;;;9.72;96.17;99717.72;1702421;84;21663;-63
2022/01/07 03:39:10;;;;;;;8.83;4.97;;;;;;;9.92;94.22;99719.94;1703068;84;21003;-64
2022/01/07 03:41:40;;;;;;;8.15;5.20;;;;;;;9.90;94.75;99722.45;1705066;82;21163;-65
2022/01/07 03:44:09;;;;;;;6.58;4.83;;;;;;;9.75;95.78;99732.46;1703063;83;20889;-66
2022/01/07 03:46:37;;;;;;;7.90;5.00;;;;;;;9.76;96.01;99738.47;1705163;82;22618;-63
2022/01/07 03:49:04;;;;;;;10.28;6.35;;;;;;;9.80;96.44;99744.90;1705037;82;21530;-68
2022/01/07 03:51:30;;;;;;;8.25;5.35;;;;;;;9.82;96.12;99749.43;1704484;82;20984;-63
2022/01/07 03:53:57;;;;;;;8.98;6.55;;;;;;;8.87;100.00;99752.42;1703634;84;21754;-63
2022/01/07 03:56:25;;;;;;;9.13;6.25;;;;;;;8.87;100.00;99754.53;1703145;84;20988;-66
2022/01/07 03:58:54;;;;;;;12.13;8.10;;;;;;;9.03;100.00;99759.18;1704176;82;21466;-63
2022/01/07 04:01:20;;;;;;;11.85;7.83;;;;;;;9.33;100.00;99761.97;1680778;81;21460;-65
2022/01/07 04:03:46;;;;;;;11.10;7.50;;;;;;;9.26;100.00;99759.80;1688676;84;21013;-62
2022/01/07 04:06:20;;;;;;;12.20;8.63;;;;;;;9.18;100.00;99766.42;1688934;84;21419;-63
2022/01/07 04:08:43;;;;;;;11.40;7.50;;;;;;;9.24;100.00;99761.77;1688471;84;21072;-62
2022/01/07 04:11:09;;;;;;;10.88;7.90;;;;;;;9.27;100.00;99761.40;1688909;83;21568;-63
2022/01/07 04:13:38;;;;;;;10.20;7.20;;;;;;;9.42;100.00;99766.03;1688343;83;21123;-65
2022/01/07 04:16:05;;;;;;;10.63;6.80;;;;;;;9.03;100.00;99765.18;1688385;84;21747;-64
2022/01/07 04:18:33;;;;;;;10.38;6.83;;;;;;;9.04;100.00;99772.48;1688622;83;21013;-64
2022/01/07 04:21:00;;;;;;;9.30;6.47;;;;;;;8.87;100.00;99783.61;1689066;84;21460;-63
2022/01/07 04:23:26;;;;;;;8.93;6.50;;;;;;;9.09;100.00;99786.55;1688570;84;21147;-66
2022/01/07 04:25:54;;;;;;;9.00;6.80;;;;;;;9.33;100.00;99785.38;1687281;84;21158;-65
2022/01/07 04:28:20;;;;;;;8.63;6.33;;;;;;;9.53;100.00;99784.73;1687501;83;21370;-66
2022/01/07 04:30:46;;;;;;;9.28;7.00;;;;;;;9.79;98.82;99784.14;1689032;83;21767;-65
2022/01/07 04:33:15;;;;;;;10.00;6.92;;;;;;;10.10;94.17;99791.55;1688554;84;20998;-64
2022/01/07 04:35:43;;;;;;;13.30;7.55;;;;;;;9.67;97.74;99789.06;1688866;84;20985;-63
2022/01/07 04:38:09;;;;;;;12.37;8.63;;;;;;;9.96;96.57;99790.19;1689187;83;21664;-64
2022/01/07 04:40:36;;;;;;;12.10;7.35;;;;;;;9.74;95.53;99797.23;1688808;84;21102;-67
2022/01/07 04:43:04;;;;;;;12.75;7.75;;;;;;;9.94;95.58;99794.77;1688812;84;21815;-63
2022/01/07 04:45:33;;;;;;;10.38;7.58;;;;;;;9.89;94.66;99795.84;1688993;84;21573;-64
2022/01/07 04:47:59;;;;;;;11.53;8.33;;;;;;;10.05;92.65;99804.36;1689118;83;21413;-64
2022/01/07 04:50:26;;;;;;;11.80;6.72;;;;;;;9.88;93.12;99804.63;1689173;83;21033;-64
2022/01/07 04:52:52;;;;;;;13.80;8.38;;;;;;;9.95;92.22;99808.58;1688408;84;21096;-65
2022/01/07 04:55:23;;;;;;;11.18;6.62;;;;;;;10.10;90.56;99811.89;1688543;84;22326;-68
2022/01/07 04:57:51;;;;;;;10.65;5.97;;;;;;;10.24;88.66;99810.18;1689276;83;21510;-65
2022/01/07 05:00:20;;;;;;;9.88;6.10;;;;;;;10.35;85.57;99817.49;1688087;83;21055;-64
2022/01/07 05:02:47;;;;;;;8.80;5.85;;;;;;;10.46;83.62;99826.07;1679431;83;21060;-68
2022/01/07 05:05:13;;;;;;;8.93;6.25;;;;;;;10.45;82.24;99824.47;1626876;87;21557;-67
2022/01/07 05:07:40;;;;;;;9.15;5.95;;;;;;;10.26;84.09;99832.15;1641313;85;22392;-65
2022/01/07 05:10:09;;;;;;;10.90;7.15;;;;;;;10.07;86.90;99829.19;1660517;86;21591;-65
2022/01/07 05:12:36;;;;;;;13.62;9.30;;;;;;;10.12;86.89;99833.86;1661300;86;21068;-64
2022/01/07 05:15:05;;;;;;;12.73;8.50;;;;;;;10.12;87.15;99830.75;1660091;86;20930;-64
2022/01/07 05:17:32;;;;;;;12.05;8.35;;;;;;;10.05;88.16;99839.52;1660521;86;21612;-64
2022/01/07 05:19:59;;;;;;;11.08;6.92;;;;;;;9.74;92.60;99840.67;1660781;86;22111;-65
2022/01/07 05:22:25;;;;;;;10.72;7.47;;;;;;;10.17;89.36;99838.78;1661176;84;20949;-65
2022/01/07 05:24:52;;;;;;;13.13;8.28;;;;;;;10.19;87.34;99842.02;1660577;85;21025;-68
2022/01/07 05:27:19;;;;;;;12.50;8.00;;;;;;;10.34;85.28;99848.93;1659966;86;21076;-67
2022/01/07 05:29:45;;;;;;;12.95;8.65;;;;;;;10.11;85.02;99846.55;1660241;84;21115;-65
2022/01/07 05:32:14;;;;;;;11.53;7.60;;;;;;;9.59;92.31;99848.55;1656281;84;21837;-64
2022/01/07 05:34:40;;;;;;;12.33;7.50;;;;;;;9.64;94.63;99858.39;1660754;84;20938;-65
2022/01/07 05:37:10;;;;;;;9.58;6.22;;;;;;;9.85;93.62;99873.18;1660486;85;21503;-66
2022/01/07 05:39:39;;;;;;;10.58;6.25;;;;;;;10.08;89.22;99878.20;1660661;86;21079;-64
2022/01/07 05:42:07;;;;;;;10.68;6.40;;;;;;;10.01;89.95;99880.75;1660910;86;21084;-66
2022/01/07 05:44:39;;;;;;;9.38;6.22;;;;;;;10.06;91.22;99885.38;1660971;86;21840;-65
2022/01/07 05:47:06;;;;;;;10.40;6.87;;;;;;;10.14;90.69;99895.66;1657831;84;21546;-65
2022/01/07 05:49:33;;;;;;;10.90;6.53;;;;;;;10.32;90.15;99897.33;1651623;84;21043;-65
2022/01/07 05:52:00;;;;;;;12.20;6.35;;;;;;;10.42;88.78;99903.02;1660582;84;21606;-64
2022/01/07 05:54:26;;;;;;;11.45;6.37;;;;;;;10.54;87.23;99906.40;1661037;86;21056;-65
2022/01/07 05:56:53;;;;;;;14.70;8.38;;;;;;;10.15;91.22;99919.39;1660688;84;22242;-65
2022/01/07 05:59:19;;;;;;;11.75;7.42;;;;;;;9.70;96.92;99920.13;1660809;86;20961;-66
2022/01/07 06:01:45;;;;;;;13.38;9.20;;;;;;;9.79;98.26;99918.20;1663750;84;21080;-66
2022/01/07 06:04:14;;;;;;;9.50;6.17;;;;;;;9.73;98.35;99921.03;1670395;85;21126;-65
2022/01/07 06:06:41;;;;;;;10.18;7.22;;;;;;;9.57;100.00;99927.28;1671362;85;21029;-65
2022/01/07 06:09:07;;;;;;;10.82;7.37;;;;;;;9.64;100.00;99929.47;1669763;85;21150;-66
2022/01/07 06:11:33;;;;;;;10.70;6.67;;;;;;;9.57;100.00;99935.59;1670977;84;21156;-67
2022/01/07 06:14:00;;;;;;;10.15;6.87;;;;;;;9.71;99.40;99934.74;1650792;85;21490;-66
2022/01/07 06:16:30;;;;;;;9.95;5.78;;;;;;;9.78;98.52;99934.81;1643056;85;20997;-65
2022/01/07 06:18:59;;;;;;;12.00;7.70;;;;;;;9.75;98.88;99941.98;1643072;85;21094;-68
2022/01/07 06:21:26;;;;;;;10.60;7.08;;;;;;;9.82;97.90;99939.95;1659285;85;21126;-70
2022/01/07 06:23:53;;;;;;;9.93;6.37;;;;;;;9.74;98.04;99946.89;1669888;84;21212;-70
2022/01/07 06:26:20;;;;;;;8.33;5.45;;;;;;;9.81;98.34;99953.48;1666125;85;21106;-66
2022/01/07 06:28:47;;;;;;;10.45;6.58;;;;;;;9.77;98.41;99958.71;1682311;83;20918;-67
2022/01/07 06:31:13;;;;;;;10.80;6.72;;;;;;;9.77;99.18;99952.20;1683916;84;21609;-68
2022/01/07 06:33:40;;;;;;;10.48;7.20;;;;;;;9.77;99.30;99960.02;1610282;88;21219;-68
2022/01/07 06:36:07;;;;;;;11.60;7.60;;;;;;;9.82;98.26;99958.98;1682045;84;21210;-66
2022/01/07 06:38:35;;;;;;;11.30;7.50;;;;;;;10.03;96.11;99954.76;1617709;88;21562;-67
2022/01/07 06:41:04;;;;;;;12.13;7.50;;;;;;;9.94;95.58;99960.09;1638763;85;21076;-65
2022/01/07 06:43:30;;;;;;;8.93;6.47;;;;;;;10.41;90.70;99961.31;1641048;87;21537;-66
2022/01/07 06:45:59;;;;;;;10.55;6.90;;;;;;;10.72;87.05;99973.19;1647972;86;21173;-69
2022/01/07 06:48:28;;;;;;;11.48;7.87;;;;;;;10.47;87.58;99979.31;1647076;85;22278;-66
2022/01/07 06:50:54;;;;;;;11.03;6.90;;;;;;;10.44;88.62;99982.30;1647672;85;21102;-66
2022/01/07 06:53:24;;;;;;;11.57;8.10;;;;;;;10.32;87.52;99980.70;1638175;86;20989;-66
2022/01/07 06:55:53;;;;;;;12.98;7.20;;;;;;;10.24;91.29;99984.71;1651092;85;21102;-71
2022/01/07 06:58:20;;;;;;;9.93;7.50;;;;;;;10.31;92.13;99990.02;1646833;86;22509;-67
2022/01/07 07:00:50;;;;;;;9.65;6.67;;;;;;;10.43;89.45;99993.72;1648422;86;21098;-68
2022/01/07 07:03:16;;;;;;;10.08;6.45;;;;;;;10.45;90.25;99990.41;1654195;84;21075;-68
2022/01/07 07:05:43;;;;;;;11.43;7.65;;;;;;;10.16;91.53;99983.55;1689436;84;21052;-69
2022/01/07 07:08:11;;;;;;;12.95;9.05;;;;;;;10.18;93.20;99987.55;1678856;84;21095;-67
2022/01/07 07:10:39;;;;;;;12.63;9.30;;;;;;;10.35;92.32;99985.54;1689290;84;21569;-67
2022/01/07 07:13:05;;;;;;;11.80;8.48;;;;;;;10.41;91.77;99979.55;1688565;83;21016;-70
2022/01/07 07:15:32;;;;;;;12.18;8.85;;;;;;;10.50;90.86;99994.58;1689218;83;21047;-67
2022/01/07 07:18:00;;;;;;;20.80;14.90;;;;;;;10.55;89.50;99996.61;1688952;83;21021;-68
2022/01/07 07:20:29;;;;;;;18.62;14.45;;;;;;;10.60;88.09;99996.84;1688368;83;21031;-66
2022/01/07 07:22:55;;;;;;;17.30;12.70;;;;;;;10.64;89.42;99999.38;1688479;84;21803;-67
2022/01/07 07:25:23;;;;;;;12.70;9.08;;;;;;;10.92;85.44;100007.20;1678726;84;21053;-68
2022/01/07 07:27:51;;;;;;;12.60;7.47;;;;;;;11.01;83.14;100011.26;1688982;83;21171;-70
2022/01/07 07:30:19;;;;;;;9.93;7.50;;;;;;;10.56;85.60;100023.78;1689996;83;20964;-67
2022/01/07 07:32:47;;;;;;;9.90;6.92;;;;;;;10.60;86.68;100024.20;1645333;86;21059;-67
2022/01/07 07:37:48;;;;;;;12.28;8.38;;;;;;;10.42;89.38;100025.98;1658986;84;21046;-70
2022/01/07 07:40:17;;;;;;;10.43;6.58;;;;;;;10.45;89.48;100031.63;1655778;86;20994;-66
2022/01/07 07:42:44;;;;;;;11.45;7.47;;;;;;;10.60;88.23;100032.03;1660584;86;21046;-66
2022/01/07 07:45:13;;;;;;;11.70;7.78;;;;;;;10.96;82.37;100033.20;1659913;86;21036;-70
2022/01/07 07:47:40;;;;;;;11.68;7.92;;;;;;;10.41;85.30;100039.98;1660580;84;21220;-67
2022/01/07 07:50:10;;;;;;;12.78;6.92;;;;;;;10.42;85.20;100046.33;1660117;84;20989;-70
2022/01/07 07:52:38;;;;;;;11.10;8.10;;;;;;;10.48;85.28;100048.67;1660642;86;22410;-68
2022/01/07 07:55:07;;;;;;;11.78;7.80;;;;;;;10.40;84.94;100056.63;1660584;86;21057;-66
2022/01/07 07:57:33;;;;;;;10.63;7.78;;;;;;;10.43;84.83;100052.34;1659193;86;21073;-67
2022/01/07 08:00:00;;;;;;;9.73;7.35;;;;;;;10.38;87.18;100041.66;1659505;84;21221;-68
2022/01/07 08:02:30;;;;;;;9.90;7.72;;;;;;;10.64;84.37;100041.08;1654182;85;21569;-67
2022/01/07 08:04:57;;;;;;;12.93;8.60;;;;;;;10.59;84.37;100043.45;1665020;84;21138;-70
2022/01/07 08:07:24;;;;;;;11.68;7.40;;;;;;;10.71;81.22;100045.86;1658119;84;21138;-70
2022/01/07 08:09:54;;;;;;;10.58;8.00;;;;;;;10.97;78.54;100051.77;1654839;84;21196;-69
2022/01/07 08:12:29;;;;;;;12.60;8.30;;;;;;;11.03;76.09;100047.10;1665000;84;20971;-68
2022/01/07 08:17:37;;;;;;;10.38;6.83;;;;;;;11.06;75.83;100055.02;1632513;85;22339;-69
2022/01/07 08:20:08;;;;;;;12.58;10.50;;;;;;;11.04;77.10;100049.20;1656495;84;21018;-70
2022/01/07 08:22:35;;;;;;;11.20;6.75;;;;;;;11.09;75.73;100046.82;1663866;84;21052;-69
2022/01/07 08:25:02;;;;;;;9.95;7.30;;;;;;;10.53;79.88;100049.41;1661218;84;22244;-69
2022/01/07 08:27:29;;;;;;;9.65;6.17;;;;;;;10.91;76.52;100062.47;1629410;85;21079;-69
2022/01/07 08:29:59;;;;;;;10.93;7.85;;;;;;;11.08;73.80;100050.44;1665274;84;21021;-71
2022/01/07 08:35:14;;;;;;;12.15;8.38;;;;;;;11.44;72.31;100053.66;1659171;84;21178;-69
2022/01/07 08:37:40;;;;;;;10.65;7.87;;;;;;;11.64;70.27;100060.77;1665661;84;22221;-69
2022/01/07 08:40:10;;;;;;;12.03;8.20;;;;;;;11.96;71.02;100063.72;1663142;84;20975;-68
2022/01/07 08:42:37;;;;;;;12.18;7.35;;;;;;;12.35;71.00;100069.05;1654956;84;21107;-69
2022/01/07 08:45:05;;;;;;;10.48;7.92;;;;;;;12.27;77.34;100073.13;1666302;84;21080;-67
2022/01/07 08:47:31;;;;;;;10.25;6.92;;;;;;;12.79;76.09;100068.95;1666753;84;20963;-67
2022/01/07 08:49:58;;;;;;;8.87;6.70;;;;;;;13.56;72.07;100062.69;1665942;84;21819;-69
2022/01/07 08:52:24;;;;;;;9.80;7.20;;;;;;;13.41;68.65;100069.99;1663520;84;22395;-65
2022/01/07 08:54:51;;;;;;;10.80;6.55;;;;;;;13.31;62.80;100068.63;1662848;84;21142;-70
2022/01/07 08:57:22;;;;;;;8.27;6.07;;;;;;;12.86;61.60;100078.92;1668003;85;21501;-68
2022/01/07 08:59:53;;;;;;;7.85;5.58;;;;;;;12.74;59.50;100072.69;1662644;84;21335;-69
2022/01/07 09:02:21;;;;;;;8.87;6.00;;;;;;;12.32;59.63;100082.51;1669350;84;21932;-69
2022/01/07 09:04:52;;;;;;;10.00;6.00;;;;;;;12.25;58.64;100088.22;1686973;84;20983;-70
2022/01/07 09:07:20;;;;;;;6.75;4.60;;;;;;;11.78;58.47;100079.42;1685348;83;21790;-67
2022/01/07 09:09:48;;;;;;;9.87;7.03;;;;;;;11.79;59.38;100078.41;1682462;83;21092;-73
2022/01/07 09:12:14;;;;;;;10.25;7.05;;;;;;;11.57;59.60;100080.82;1669825;83;21714;-70
2022/01/07 09:14:41;;;;;;;8.35;5.87;;;;;;;11.68;59.01;100081.07;1680562;83;21166;-70
2022/01/07 09:17:08;;;;;;;8.48;5.85;;;;;;;11.76;58.75;100085.32;1686107;83;20973;-69
2022/01/07 09:19:36;;;;;;;9.00;5.80;;;;;;;11.80;57.34;100090.45;1686043;84;21466;-69
2022/01/07 09:22:08;;;;;;;7.78;4.90;;;;;;;11.61;57.25;100085.45;1687134;84;21447;-70
2022/01/07 09:24:34;;;;;;;;;;;;;;;11.70;57.15;100087.39;1689897;84;20953;-69
2022/01/07 09:27:01;;;;;;;7.72;5.45;;;;;;;11.43;57.62;100092.48;1674780;84;21463;-68
2022/01/07 09:29:27;;;;;;;9.15;5.28;;;;;;;11.50;58.08;100086.50;1687795;83;20917;-67
2022/01/07 09:31:54;;;;;;;9.13;5.78;;;;;;;11.63;57.89;100085.25;1687088;84;20881;-68
2022/01/07 09:34:21;;;;;;;7.35;5.10;;;;;;;11.84;57.43;100096.93;1687697;84;20921;-70
2022/01/07 09:36:47;;;;;;;8.03;5.20;;;;;;;11.87;57.14;100091.83;1687687;83;21455;-70
2022/01/07 09:39:15;;;;;;;7.80;5.05;;;;;;;11.94;56.94;100087.44;1685808;83;21150;-70
2022/01/07 09:41:42;;;;;;;9.05;6.05;;;;;;;12.02;56.79;100089.88;1687081;84;20910;-70
2022/01/07 09:44:10;;;;;;;7.67;5.40;;;;;;;11.45;58.44;100089.70;1686961;84;20988;-70
2022/01/07 09:46:39;;;;;;;9.43;5.62;;;;;;;11.97;59.73;100084.44;1687120;84;20964;-69
2022/01/07 09:49:06;;;;;;;7.08;5.47;;;;;;;12.35;59.33;100088.66;1680382;83;21541;-70
2022/01/07 09:51:34;;;;;;;9.93;7.50;;;;;;;12.60;58.92;100085.45;1674154;84;21125;-68
2022/01/07 09:54:05;;;;;;;7.05;5.37;;;;;;;12.91;59.38;100092.69;1668357;84;21600;-72
2022/01/07 09:56:31;;;;;;;9.43;5.50;;;;;;;13.02;57.74;100086.84;1669898;83;21700;-68
2022/01/07 09:59:04;;;;;;;6.97;4.60;;;;;;;13.02;56.68;100089.97;1673406;84;20997;-68
2022/01/07 10:01:29;;;;;;;8.03;4.97;;;;;;;13.00;54.60;100105.09;1686547;84;21920;-68
2022/01/07 10:03:56;;;;;;;7.87;4.30;;;;;;;13.14;53.15;100089.65;1686587;83;22101;-69
2022/01/07 10:06:25;;;;;;;6.42;4.65;;;;;;;13.20;52.16;100099.31;1685736;84;21574;-70
2022/01/07 10:09:03;;;;;;;7.58;5.05;;;;;;;12.86;52.08;100105.08;1686117;84;21027;-69
2022/01/07 10:11:30;;;;;;;7.50;5.03;;;;;;;12.60;52.41;100108.98;1685223;83;20889;-69
2022/01/07 10:14:22;;;;;;;7.58;5.00;;;;;;;12.25;53.28;100104.41;1686842;84;21027;-70
2022/01/07 10:16:52;;;;;;;8.88;5.37;;;;;;;11.68;54.84;100103.77;1681949;83;21396;-70
2022/01/07 10:19:42;;;;;;;7.92;4.90;;;;;;;11.55;56.61;100112.82;1686601;83;21052;-71
2022/01/07 10:22:13;;;;;;;8.05;4.72;;;;;;;11.71;56.88;100113.83;1686216;84;22184;-72
2022/01/07 10:24:58;;;;;;;8.23;4.70;;;;;;;12.04;56.62;100110.05;1687407;84;21554;-70
2022/01/07 10:27:34;;;;;;;6.58;4.17;;;;;;;12.49;56.79;100116.91;1677449;84;20981;-71
2022/01/07 10:30:00;;;;;;;7.25;4.50;;;;;;;13.11;57.54;100120.17;1686250;84;21067;-71
2022/01/07 10:32:31;;;;;;;8.08;4.60;;;;;;;13.54;57.12;100106.13;1687114;84;20996;-70
2022/01/07 10:35:13;;;;;;;7.80;4.70;;;;;;;14.03;55.69;100111.79;1686645;84;21407;-71
2022/01/07 10:37:50;;;;;;;8.45;5.35;;;;;;;14.33;52.33;100115.97;1687180;84;20973;-72
2022/01/07 10:40:23;;;;;;;10.33;6.33;;;;;;;14.47;49.46;100115.36;1682603;84;21098;-70
2022/01/07 10:42:50;;;;;;;9.03;5.03;;;;;;;14.54;47.61;100114.33;1686743;84;22348;-69
2022/01/07 10:45:17;;;;;;;8.77;4.10;;;;;;;14.14;46.64;100118.20;1687130;84;21881;-68
2022/01/07 10:47:48;;;;;;;6.40;3.97;;;;;;;12.75;48.56;100137.06;1686703;84;21229;-70
2022/01/07 10:50:23;;;;;;;6.28;3.72;;;;;;;12.37;49.66;100130.27;1686300;84;21337;-68
2022/01/07 10:53:14;;;;;;;5.47;3.62;;;;;;;12.04;50.30;100130.16;1686944;83;21012;-68
2022/01/07 10:55:40;;;;;;;7.45;4.37;;;;;;;11.57;51.10;100127.31;1681031;84;21200;-70
2022/01/07 10:58:10;;;;;;;6.45;4.08;;;;;;;11.49;51.59;100131.38;1658830;84;20941;-69
2022/01/07 11:00:37;;;;;;;5.97;3.37;;;;;;;11.50;51.46;100140.02;1687397;84;21075;-69
2022/01/07 11:03:08;;;;;;;8.65;4.17;;;;;;;11.55;51.55;100142.84;1686603;83;21029;-68
2022/01/07 11:05:35;;;;;;;6.58;3.77;;;;;;;11.40;51.95;100145.09;1687338;83;21133;-68
2022/01/07 11:08:03;;;;;;;6.70;4.12;;;;;;;11.40;52.49;100156.00;1686514;84;21163;-69
2022/01/07 11:10:29;;;;;;;7.35;3.70;;;;;;;11.61;52.24;100154.64;1687193;84;21020;-68
2022/01/07 11:12:57;;;;;;;5.05;3.20;;;;;;;11.36;52.21;100156.88;1686106;84;21038;-67
2022/01/07 11:15:23;;;;;;;5.78;3.00;;;;;;;11.52;51.63;100158.41;1687303;83;21079;-68
2022/01/07 11:17:50;;;;;;;7.95;4.87;;;;;;;11.39;51.48;100168.25;1687138;83;20938;-68
2022/01/07 11:20:20;;;;;;;7.10;3.85;;;;;;;11.39;51.68;100155.70;1686440;84;21178;-69
2022/01/07 11:22:49;;;;;;;7.15;3.60;;;;;;;11.28;51.78;100166.16;1659735;84;21040;-67
2022/01/07 11:25:16;;;;;;;5.62;3.87;;;;;;;11.14;51.89;100178.31;1686295;84;21091;-68
2022/01/07 11:27:58;;;;;;;6.60;4.10;;;;;;;11.22;51.65;100181.28;1682995;83;21074;-68
2022/01/07 11:30:28;;;;;;;;;;;;;;;11.32;51.58;100180.44;1687148;84;21083;-68
2022/01/07 11:32:54;;;;;;;7.62;4.70;;;;;;;12.10;49.81;100189.48;1686345;84;21837;-70
2022/01/07 11:35:26;;;;;;;11.97;6.55;;;;;;;11.93;49.75;100194.20;1686664;84;22225;-68
2022/01/07 11:37:55;;;;;;;15.90;8.68;;;;;;;10.98;50.67;100208.55;1686896;83;21076;-68